Alton, Illinois
Current Conditions -  °F | °C
As of 10:55 PM on Thursday 30 Oct 2014 (Local Time) from KALN Reporting Station
Overcast Overcast  
Wind Chill: 47°   Ceiling: 3200
Heat Index: 47°   Visibility: 10mi
Dew Point: 44°   Wind: 0mph
Humidity: 91%   Direction: NA
Pressure: 30.04"   Gusts: NA
Location:  38.89°N, 90.18°W
Report Text: KALN 310355Z AUTO 00000KT 10SM OVC032 08/07 A3004 RMK AO2 T00830069
Loading
Personal Weather Stations






























Interactive Weather Map
Tropical Storm Tracking
New forecast layout! Learn more

10-Day Weather Forecast

Advertisements
Track Severe Weather on mobile